createdAt,value
2023-02-25T00:00:39.386Z,27.90
2023-02-25T00:05:43.844Z,18.50
2023-02-25T00:10:46.639Z,25.48
2023-02-25T00:15:49.394Z,20.15
2023-02-25T00:20:53.643Z,19.73
2023-02-25T00:26:00.151Z,26.70
2023-02-25T00:31:09.174Z,13.10
2023-02-25T00:36:18.847Z,26.75
2023-02-25T00:41:24.149Z,30.02
2023-02-25T00:46:27.754Z,19.55
2023-02-25T00:51:34.125Z,21.85
2023-02-25T00:56:37.176Z,22.92
2023-02-25T01:01:40.328Z,21.27
2023-02-25T01:06:45.321Z,18.05
2023-02-25T01:11:49.591Z,25.60
2023-02-25T01:16:53.837Z,26.15
2023-02-25T01:21:59.687Z,23.80
2023-02-25T01:27:04.021Z,17.90
2023-02-25T01:32:08.804Z,21.92
2023-02-25T01:37:13.094Z,26.50
2023-02-25T01:42:17.720Z,19.38
2023-02-25T01:47:21.225Z,18.58
2023-02-25T01:52:26.637Z,15.23
2023-02-25T01:57:29.419Z,16.85
2023-02-25T02:02:34.135Z,19.08
2023-02-25T02:07:42.635Z,31.02
2023-02-25T02:12:48.090Z,21.85
2023-02-25T02:17:57.764Z,31.48
2023-02-25T02:23:22.122Z,21.13
2023-02-25T02:28:47.271Z,24.10
2023-02-25T02:34:00.632Z,25.63
2023-02-25T02:39:09.926Z,21.83
2023-02-25T02:44:16.702Z,21.65
2023-02-25T02:49:25.295Z,17.33
2023-02-25T02:54:33.284Z,20.20
2023-02-25T02:59:42.967Z,21.15
2023-02-25T03:04:51.316Z,20.23
2023-02-25T03:09:58.074Z,20.95
2023-02-25T03:15:02.258Z,25.27
2023-02-25T03:20:14.220Z,22.45
2023-02-25T03:25:22.011Z,20.77
2023-02-25T03:30:32.630Z,21.25
2023-02-25T03:35:39.974Z,29.15
2023-02-25T03:40:44.628Z,19.27
2023-02-25T03:45:47.706Z,24.52
2023-02-25T03:50:59.240Z,21.55
2023-02-25T03:56:06.390Z,21.30
2023-02-25T04:01:17.001Z,19.38
2023-02-25T04:06:24.744Z,12.38
2023-02-25T04:11:28.068Z,14.02
2023-02-25T04:16:30.985Z,19.25
2023-02-25T04:21:39.512Z,15.32
2023-02-25T04:26:42.317Z,13.75
2023-02-25T04:31:45.402Z,11.95
2023-02-25T04:36:49.940Z,11.65
2023-02-25T04:41:52.703Z,10.38
2023-02-25T04:46:56.072Z,10.90
2023-02-25T04:52:00.233Z,15.27
2023-02-25T04:57:02.982Z,14.10
2023-02-25T05:02:06.041Z,13.48
2023-02-25T05:07:10.640Z,13.20
2023-02-25T05:12:13.515Z,13.30
2023-02-25T05:17:16.875Z,11.80
2023-02-25T05:22:21.054Z,9.65
2023-02-25T05:27:23.868Z,8.30
2023-02-25T05:32:26.820Z,14.95
2023-02-25T05:37:32.387Z,13.30
2023-02-25T05:42:35.170Z,13.63
2023-02-25T05:47:38.000Z,8.95
2023-02-25T05:52:42.146Z,10.07
2023-02-25T05:57:44.959Z,3.92
2023-02-25T06:02:48.136Z,7.78
2023-02-25T06:07:52.348Z,10.02
2023-02-25T06:12:55.134Z,8.63
2023-02-25T06:17:57.999Z,5.47
2023-02-25T06:23:02.218Z,8.98
2023-02-25T06:28:05.473Z,11.38
2023-02-25T06:33:08.559Z,9.77
2023-02-25T06:38:12.826Z,9.57
2023-02-25T06:43:15.853Z,8.50
2023-02-25T06:48:18.632Z,8.65
2023-02-25T06:53:24.311Z,10.27
2023-02-25T06:58:27.227Z,8.32
2023-02-25T07:03:30.017Z,8.27
2023-02-25T07:08:34.382Z,10.18
2023-02-25T07:13:37.801Z,9.52
2023-02-25T07:18:40.664Z,7.75
2023-02-25T07:23:46.419Z,6.88
2023-02-25T07:28:49.267Z,6.78
2023-02-25T07:33:52.912Z,7.65
2023-02-25T07:38:57.598Z,3.70
2023-02-25T07:44:00.518Z,8.93
2023-02-25T07:49:03.547Z,5.57
2023-02-25T07:54:08.165Z,4.47
2023-02-25T07:59:11.365Z,3.78
2023-02-25T08:04:14.366Z,7.05
2023-02-25T08:09:19.056Z,9.10
2023-02-25T08:14:22.708Z,3.95
2023-02-25T08:19:25.616Z,7.93
2023-02-25T08:24:29.791Z,7.18
2023-02-25T08:29:32.599Z,2.65
2023-02-25T08:34:36.066Z,5.10
2023-02-25T08:39:40.316Z,4.72
2023-02-25T08:44:43.300Z,7.15
2023-02-25T08:49:47.557Z,4.72
2023-02-25T08:54:52.007Z,5.05
2023-02-25T08:59:55.192Z,5.97
2023-02-25T09:04:58.018Z,6.72
2023-02-25T09:10:04.206Z,8.35
2023-02-25T09:15:08.611Z,7.25
2023-02-25T09:20:12.372Z,6.05
2023-02-25T09:25:16.683Z,10.10
2023-02-25T09:30:19.578Z,9.65
2023-02-25T09:35:22.572Z,9.25
2023-02-25T09:40:26.949Z,13.02
2023-02-25T09:45:34.115Z,9.57
2023-02-25T09:50:43.371Z,4.53
2023-02-25T09:55:50.721Z,7.57
2023-02-25T10:01:04.308Z,5.80
2023-02-25T10:06:15.324Z,5.60
2023-02-25T10:11:30.481Z,7.47
2023-02-25T10:16:43.882Z,8.20
2023-02-25T10:22:09.864Z,3.97
2023-02-25T10:27:21.685Z,7.45
2023-02-25T10:32:26.958Z,9.82
2023-02-25T10:37:33.906Z,7.25
2023-02-25T10:42:38.591Z,9.95
2023-02-25T10:47:43.719Z,7.05
2023-02-25T10:53:06.055Z,6.45
2023-02-25T10:58:27.084Z,3.15
2023-02-25T11:03:32.605Z,2.72
2023-02-25T11:08:36.935Z,4.20
2023-02-25T11:13:41.583Z,3.33
2023-02-25T11:18:44.476Z,4.00
2023-02-25T11:23:49.375Z,2.88
2023-02-25T11:28:53.710Z,4.75
2023-02-25T11:34:01.140Z,4.57
2023-02-25T11:39:08.537Z,1.65
2023-02-25T11:44:23.811Z,3.22
2023-02-25T11:49:35.474Z,4.75
2023-02-25T11:54:50.023Z,1.88
2023-02-25T12:00:06.464Z,2.35
2023-02-25T12:05:35.215Z,1.50
2023-02-25T12:11:09.077Z,1.67
2023-02-25T12:16:44.505Z,2.25
2023-02-25T12:22:23.722Z,1.08
2023-02-25T12:28:12.031Z,3.33
2023-02-25T12:33:37.834Z,2.33
2023-02-25T12:39:12.027Z,2.53
2023-02-25T12:44:52.848Z,1.70
2023-02-25T12:50:09.230Z,1.00
2023-02-25T12:55:43.088Z,3.40
2023-02-25T13:01:04.154Z,1.75
2023-02-25T13:06:32.384Z,2.15
2023-02-25T13:12:09.996Z,0.70
2023-02-25T13:17:34.391Z,2.28
2023-02-25T13:22:53.389Z,3.45
2023-02-25T13:28:08.451Z,2.05
2023-02-25T13:33:26.847Z,4.50
2023-02-25T13:38:42.543Z,3.50
2023-02-25T13:43:56.100Z,2.40
2023-02-25T13:49:23.197Z,4.45
2023-02-25T13:55:02.311Z,2.85
2023-02-25T14:00:40.742Z,2.42
2023-02-25T14:06:03.295Z,3.40
2023-02-25T14:11:26.930Z,3.70
2023-02-25T14:16:44.865Z,2.60
2023-02-25T14:22:07.270Z,1.45
2023-02-25T14:27:21.951Z,2.25
2023-02-25T14:32:43.949Z,1.08
2023-02-25T14:37:58.123Z,1.13
2023-02-25T14:43:16.441Z,1.95
2023-02-25T14:48:26.969Z,1.40
2023-02-25T14:53:53.306Z,3.67
2023-02-25T14:59:42.470Z,2.00
2023-02-25T15:05:20.003Z,2.70
2023-02-25T15:10:34.686Z,2.90
2023-02-25T15:15:55.610Z,3.80
2023-02-25T15:21:00.461Z,1.77
2023-02-25T15:26:22.808Z,3.83
2023-02-25T15:31:29.832Z,1.67
2023-02-25T15:36:43.588Z,3.55
2023-02-25T15:41:59.953Z,3.83
2023-02-25T15:47:24.889Z,3.70
2023-02-25T15:53:02.712Z,5.00
2023-02-25T15:58:40.150Z,3.05
2023-02-25T16:03:43.786Z,4.60
2023-02-25T16:08:53.650Z,2.33
2023-02-25T16:13:56.682Z,3.63
2023-02-25T16:19:01.275Z,2.40
2023-02-25T16:24:08.975Z,4.25
2023-02-25T16:29:26.628Z,6.22
2023-02-25T16:34:35.874Z,2.55
2023-02-25T16:39:40.637Z,9.20
2023-02-25T16:44:56.264Z,3.72
2023-02-25T16:50:01.486Z,2.28
2023-02-25T16:55:12.383Z,1.67
2023-02-25T17:00:19.897Z,6.22
2023-02-25T17:05:25.338Z,4.43
2023-02-25T17:10:33.565Z,9.43
2023-02-25T17:15:38.153Z,11.57
2023-02-25T17:20:42.098Z,6.32
2023-02-25T17:25:49.857Z,6.43
2023-02-25T17:30:53.158Z,6.40
2023-02-25T17:35:59.891Z,5.30
2023-02-25T17:41:04.800Z,10.00
2023-02-25T17:46:18.553Z,3.17
2023-02-25T17:51:31.663Z,2.78
2023-02-25T17:56:38.190Z,2.47
2023-02-25T18:01:49.511Z,1.75
2023-02-25T18:06:52.754Z,3.70
2023-02-25T18:11:59.330Z,5.10
2023-02-25T18:17:13.283Z,4.57
2023-02-25T18:22:35.062Z,10.15
2023-02-25T18:27:39.234Z,14.47
2023-02-25T18:32:42.006Z,5.97
2023-02-25T18:37:47.290Z,7.82
2023-02-25T18:42:51.511Z,7.25
2023-02-25T18:47:56.643Z,5.43
2023-02-25T18:53:00.186Z,4.25
2023-02-25T18:58:04.818Z,7.95
2023-02-25T19:03:09.947Z,7.65
2023-02-25T19:08:14.855Z,5.20
2023-02-25T19:13:24.693Z,5.18
2023-02-25T19:18:27.726Z,4.43
2023-02-25T19:23:30.670Z,5.70
2023-02-25T19:28:34.868Z,3.97
2023-02-25T19:33:37.690Z,3.83
2023-02-25T19:38:40.533Z,4.78
2023-02-25T19:43:44.737Z,8.20
2023-02-25T19:48:47.514Z,3.28
2023-02-25T19:53:50.370Z,3.78
2023-02-25T19:58:58.960Z,2.83
2023-02-25T20:04:02.394Z,4.03
2023-02-25T20:09:07.855Z,6.15
2023-02-25T20:14:13.803Z,6.13
2023-02-25T20:19:16.639Z,3.22
2023-02-25T20:24:19.488Z,3.90
2023-02-25T20:29:24.008Z,4.18
2023-02-25T20:34:27.557Z,3.30
2023-02-25T20:39:45.411Z,3.63
2023-02-25T20:44:51.547Z,3.33
2023-02-25T20:49:55.866Z,3.33
2023-02-25T20:54:59.032Z,4.15
2023-02-25T21:00:03.386Z,5.25
2023-02-25T21:05:06.871Z,6.18
2023-02-25T21:10:11.167Z,15.95
2023-02-25T21:15:15.477Z,11.73
2023-02-25T21:20:18.313Z,6.10
2023-02-25T21:25:21.422Z,4.22
2023-02-25T21:30:26.586Z,6.63
2023-02-25T21:35:29.457Z,9.23
2023-02-25T21:40:32.328Z,6.72
2023-02-25T21:45:37.106Z,6.82
2023-02-25T21:50:45.442Z,4.38
2023-02-25T21:55:48.807Z,7.45
2023-02-25T22:00:52.978Z,7.50
2023-02-25T22:05:55.819Z,7.28
2023-02-25T22:10:58.680Z,7.75
2023-02-25T22:16:04.321Z,6.32
2023-02-25T22:21:09.590Z,7.85
2023-02-25T22:26:14.912Z,7.15
2023-02-25T22:31:19.910Z,7.95
2023-02-25T22:36:23.217Z,12.38
2023-02-25T22:41:28.201Z,7.30
2023-02-25T22:46:35.938Z,8.82
2023-02-25T22:51:42.013Z,7.65
2023-02-25T22:56:46.072Z,7.72
2023-02-25T23:01:50.254Z,7.45
2023-02-25T23:06:55.639Z,12.43
2023-02-25T23:11:59.845Z,5.40
2023-02-25T23:17:04.514Z,6.50
2023-02-25T23:22:09.573Z,6.90
2023-02-25T23:27:12.284Z,8.52
2023-02-25T23:32:16.387Z,3.78
2023-02-25T23:37:19.205Z,4.88
2023-02-25T23:42:21.942Z,6.95
2023-02-25T23:47:26.017Z,7.15
2023-02-25T23:52:28.883Z,8.52
2023-02-25T23:57:31.736Z,4.82
